Time;durP1;ratioP1;P1;durP2;ratioP2;P2;SDS_P1;SDS_P2;PMS_P1;PMS_P2;Temp;Humidity;BMP_temperature;BMP_pressure;BME280_temperature;BME280_humidity;BME280_pressure;Samples;Min_cycle;Max_cycle;Signal;HPM_P1;HPM_P2
2022/07/03 00:01:03;;;;;;;8.05;5.28;;;26.20;57.80;;;;;;6160219;28;80516;-66
2022/07/03 00:04:04;;;;;;;7.68;5.15;;;26.20;57.70;;;;;;6160463;28;80614;-64
2022/07/03 00:07:04;;;;;;;8.80;5.55;;;26.30;57.90;;;;;;6161163;28;80460;-65
2022/07/03 00:10:04;;;;;;;5.88;4.57;;;26.40;57.90;;;;;;6160692;28;80299;-67
2022/07/03 00:13:05;;;;;;;7.03;4.50;;;26.40;57.80;;;;;;6150417;28;80265;-64
2022/07/03 00:16:05;;;;;;;7.63;5.50;;;26.40;57.70;;;;;;6156429;28;80819;-66
2022/07/03 00:19:07;;;;;;;8.38;5.40;;;26.30;57.50;;;;;;6144868;28;80830;-65
2022/07/03 00:22:07;;;;;;;7.32;4.97;;;26.10;57.90;;;;;;6160355;28;80293;-65
2022/07/03 00:25:08;;;;;;;9.70;4.90;;;26.10;58.10;;;;;;6160501;28;80766;-65
2022/07/03 00:28:08;;;;;;;5.93;5.18;;;26.10;58.10;;;;;;6159778;28;80458;-63
2022/07/03 00:31:09;;;;;;;8.30;5.63;;;26.20;58.20;;;;;;6160399;28;80579;-64
2022/07/03 00:34:09;;;;;;;9.90;5.70;;;26.20;58.10;;;;;;6160183;28;80370;-63
2022/07/03 00:37:10;;;;;;;10.05;5.75;;;26.20;58.20;;;;;;6155949;28;81680;-63
2022/07/03 00:40:10;;;;;;;7.82;5.25;;;26.30;58.30;;;;;;6157462;28;80643;-64
2022/07/03 00:43:11;;;;;;;8.27;5.05;;;26.30;58.40;;;;;;6148208;28;80954;-63
2022/07/03 00:46:11;;;;;;;14.38;6.07;;;26.20;58.40;;;;;;6152565;28;80554;-63
2022/07/03 00:49:12;;;;;;;7.05;5.45;;;26.10;58.50;;;;;;6160265;28;80539;-62
2022/07/03 00:52:12;;;;;;;8.38;5.45;;;26.10;58.80;;;;;;6159475;28;80297;-64
2022/07/03 00:55:13;;;;;;;8.02;5.10;;;26.00;58.80;;;;;;6159972;28;80779;-64
2022/07/03 00:58:13;;;;;;;8.88;4.97;;;26.10;58.90;;;;;;6159393;28;82309;-64
2022/07/03 01:01:14;;;;;;;7.50;4.72;;;26.10;58.80;;;;;;6159811;28;80602;-65
2022/07/03 01:04:14;;;;;;;7.30;4.80;;;26.10;58.70;;;;;;6151570;28;81621;-66
2022/07/03 01:07:14;;;;;;;6.15;4.43;;;26.20;58.80;;;;;;6160415;28;80468;-66
2022/07/03 01:10:15;;;;;;;9.40;5.30;;;26.20;58.80;;;;;;6157226;28;80646;-65
2022/07/03 01:13:15;;;;;;;6.97;4.57;;;26.20;58.80;;;;;;6156176;28;80510;-65
2022/07/03 01:16:16;;;;;;;6.70;4.88;;;26.30;58.70;;;;;;6159665;28;80390;-65
2022/07/03 01:19:16;;;;;;;6.50;4.45;;;26.30;58.70;;;;;;6159218;28;80536;-65
2022/07/03 01:22:17;;;;;;;6.88;4.22;;;26.40;58.70;;;;;;6159228;28;82287;-65
2022/07/03 01:25:17;;;;;;;5.50;4.03;;;26.40;58.70;;;;;;6159391;28;80372;-65
2022/07/03 01:28:18;;;;;;;5.30;3.88;;;26.40;58.70;;;;;;6159677;28;80310;-65
2022/07/03 01:31:19;;;;;;;6.13;3.85;;;26.40;58.70;;;;;;6159014;28;80651;-65
2022/07/03 01:34:19;;;;;;;6.55;4.57;;;26.40;58.50;;;;;;6159357;28;80234;-64
2022/07/03 01:37:20;;;;;;;4.60;4.05;;;26.40;58.50;;;;;;6159713;28;80824;-64
2022/07/03 01:40:21;;;;;;;6.35;4.32;;;26.40;58.50;;;;;;6159239;28;80471;-64
2022/07/03 01:43:22;;;;;;;4.57;3.60;;;26.40;58.50;;;;;;6159129;28;80430;-63
2022/07/03 01:46:22;;;;;;;4.90;3.70;;;26.40;58.50;;;;;;6149921;28;80849;-63
2022/07/03 01:49:23;;;;;;;5.63;4.38;;;26.40;58.40;;;;;;6157078;28;80361;-63
2022/07/03 01:52:23;;;;;;;6.07;4.18;;;26.40;58.40;;;;;;6144633;28;81351;-63
2022/07/03 01:55:24;;;;;;;6.15;4.55;;;26.40;58.40;;;;;;6160100;28;80356;-64
2022/07/03 01:58:24;;;;;;;6.53;4.25;;;26.30;58.40;;;;;;6156470;28;80319;-64
2022/07/03 02:01:24;;;;;;;6.57;4.65;;;26.30;58.50;;;;;;6158729;28;86338;-64
2022/07/03 02:04:25;;;;;;;5.80;3.28;;;26.30;58.60;;;;;;6157505;28;80375;-63
2022/07/03 02:07:25;;;;;;;4.25;3.78;;;26.40;58.70;;;;;;6157526;28;80592;-64
2022/07/03 02:10:26;;;;;;;4.60;3.85;;;26.40;58.70;;;;;;6152397;28;80468;-63
2022/07/03 02:13:26;;;;;;;5.55;3.65;;;26.40;58.60;;;;;;6158737;28;80329;-63
2022/07/03 02:16:27;;;;;;;6.60;4.20;;;26.30;58.50;;;;;;6155544;28;81530;-63
2022/07/03 02:19:28;;;;;;;4.82;4.03;;;26.40;58.50;;;;;;6159313;28;80752;-64
2022/07/03 02:22:28;;;;;;;5.28;3.88;;;26.40;58.50;;;;;;6147379;28;81261;-64
2022/07/03 02:25:28;;;;;;;5.72;4.10;;;26.40;58.30;;;;;;6158717;28;80116;-65
2022/07/03 02:28:30;;;;;;;7.45;4.32;;;26.40;58.30;;;;;;6159605;28;80679;-65
2022/07/03 02:31:30;;;;;;;7.07;4.55;;;26.40;58.20;;;;;;6160097;28;81320;-65
2022/07/03 02:34:31;;;;;;;4.25;3.78;;;26.40;58.20;;;;;;6160167;28;80465;-65
2022/07/03 02:37:31;;;;;;;8.60;3.97;;;26.40;58.20;;;;;;6159974;28;80189;-66
2022/07/03 02:40:32;;;;;;;5.95;4.07;;;26.40;58.20;;;;;;6158972;28;80401;-64
2022/07/03 02:43:32;;;;;;;7.13;4.13;;;26.40;58.20;;;;;;6158552;28;80407;-65
2022/07/03 02:46:48;;;;;;;7.55;3.40;;;26.40;58.20;;;;;;6152355;28;80535;-65
2022/07/03 02:49:49;;;;;;;7.13;3.83;;;26.40;58.40;;;;;;6157346;28;80381;-65
2022/07/03 02:52:49;;;;;;;4.80;3.83;;;26.40;58.90;;;;;;6159256;28;83321;-65
2022/07/03 02:55:50;;;;;;;5.00;3.67;;;26.40;58.30;;;;;;6158166;28;80414;-65
2022/07/03 02:58:50;;;;;;;6.35;3.60;;;26.40;58.30;;;;;;6140332;28;80767;-64
2022/07/03 03:01:51;;;;;;;9.68;3.97;;;26.40;58.50;;;;;;6158309;28;81073;-66
2022/07/03 03:04:51;;;;;;;5.60;3.67;;;26.40;58.50;;;;;;6158444;28;80903;-65
2022/07/03 03:07:52;;;;;;;6.90;4.47;;;26.40;58.60;;;;;;6157768;28;81202;-64
2022/07/03 03:10:52;;;;;;;5.45;3.40;;;26.30;58.50;;;;;;6158141;28;81860;-65
2022/07/03 03:13:53;;;;;;;7.75;4.05;;;26.40;58.60;;;;;;6158230;28;80281;-64
2022/07/03 03:16:53;;;;;;;6.82;3.65;;;26.30;58.60;;;;;;6160228;28;81383;-64
2022/07/03 03:19:54;;;;;;;5.40;3.65;;;26.40;58.70;;;;;;6153836;28;81347;-65
2022/07/03 03:22:54;;;;;;;9.63;3.65;;;26.30;58.70;;;;;;6154095;28;80395;-66
2022/07/03 03:25:55;;;;;;;7.50;3.65;;;26.40;58.70;;;;;;6162217;28;81804;-66
2022/07/03 03:28:55;;;;;;;4.38;3.60;;;26.30;58.50;;;;;;6162480;28;81060;-66
2022/07/03 03:31:56;;;;;;;6.78;3.42;;;26.40;58.50;;;;;;6154278;28;80548;-66
2022/07/03 03:34:56;;;;;;;7.18;3.63;;;26.30;58.70;;;;;;6153943;28;80361;-65
2022/07/03 03:37:57;;;;;;;8.85;3.70;;;26.30;58.50;;;;;;6158458;28;80254;-65
2022/07/03 03:40:57;;;;;;;5.05;3.45;;;26.30;58.40;;;;;;6161733;28;81243;-65
2022/07/03 03:43:57;;;;;;;4.93;3.40;;;26.20;58.20;;;;;;6161445;28;81429;-65
2022/07/03 03:46:58;;;;;;;5.45;3.50;;;26.20;58.30;;;;;;6166085;28;81439;-65
2022/07/03 03:49:58;;;;;;;3.65;3.17;;;26.20;58.40;;;;;;6163766;28;80410;-65
2022/07/03 03:52:59;;;;;;;4.85;3.38;;;26.20;58.40;;;;;;6160404;28;80009;-66
2022/07/03 03:56:00;;;;;;;6.28;3.55;;;26.30;58.50;;;;;;6159781;28;81993;-67
2022/07/03 03:59:00;;;;;;;6.20;3.63;;;26.30;58.50;;;;;;6156438;28;81719;-66
2022/07/03 04:02:01;;;;;;;5.45;3.33;;;26.30;58.50;;;;;;6147964;28;80366;-66
2022/07/03 04:05:01;;;;;;;6.00;3.97;;;26.30;58.40;;;;;;6147760;28;80145;-66
2022/07/03 04:08:02;;;;;;;4.50;3.58;;;26.30;58.40;;;;;;6160045;28;82261;-67
2022/07/03 04:11:02;;;;;;;4.00;3.47;;;26.20;58.50;;;;;;6161397;28;80463;-67
2022/07/03 04:14:03;;;;;;;5.93;3.40;;;26.20;58.60;;;;;;6161017;28;80445;-66
2022/07/03 04:17:03;;;;;;;7.80;3.60;;;26.20;58.50;;;;;;6150921;28;81164;-65
2022/07/03 04:20:04;;;;;;;6.63;3.67;;;26.20;58.60;;;;;;6148205;28;81054;-67
2022/07/03 04:23:04;;;;;;;5.25;3.55;;;26.20;58.50;;;;;;6154780;28;80582;-66
2022/07/03 04:26:05;;;;;;;4.10;3.45;;;26.20;58.60;;;;;;6159203;28;80194;-65
2022/07/03 04:29:05;;;;;;;7.22;3.75;;;26.20;58.70;;;;;;6160600;28;80479;-65
2022/07/03 04:32:06;;;;;;;8.05;4.30;;;26.20;58.80;;;;;;6159496;28;83087;-66
2022/07/03 04:35:06;;;;;;;5.75;4.35;;;26.30;58.80;;;;;;6161042;28;80843;-64
2022/07/03 04:38:07;;;;;;;4.95;3.53;;;26.30;58.90;;;;;;6161026;28;80442;-65
2022/07/03 04:41:07;;;;;;;4.38;3.40;;;26.30;58.90;;;;;;6159669;28;80783;-63
2022/07/03 04:44:08;;;;;;;5.13;3.40;;;26.40;59.20;;;;;;6160421;28;81727;-64
2022/07/03 04:47:08;;;;;;;6.78;3.90;;;26.40;59.00;;;;;;6161043;28;80493;-63
2022/07/03 04:50:08;;;;;;;3.95;3.38;;;26.50;59.10;;;;;;6160663;28;80339;-63
2022/07/03 04:53:09;;;;;;;3.67;3.25;;;26.60;59.20;;;;;;6156410;28;81434;-63
2022/07/03 04:56:09;;;;;;;6.20;3.20;;;26.60;59.20;;;;;;6144413;28;80884;-63
2022/07/03 04:59:10;;;;;;;4.85;3.65;;;26.60;59.10;;;;;;6152952;28;80458;-64
2022/07/03 05:02:10;;;;;;;4.32;3.53;;;26.70;59.30;;;;;;6156554;28;81622;-63
2022/07/03 05:05:11;;;;;;;5.40;3.42;;;26.70;59.30;;;;;;6158935;28;81729;-64
2022/07/03 05:08:11;;;;;;;15.57;3.65;;;26.70;59.30;;;;;;6152872;28;80556;-62
2022/07/03 05:11:12;;;;;;;5.03;3.38;;;26.70;59.50;;;;;;6155671;28;80793;-72
2022/07/03 05:14:12;;;;;;;7.90;3.97;;;26.70;59.40;;;;;;6156280;28;80434;-68
2022/07/03 05:17:13;;;;;;;4.90;4.15;;;26.60;59.10;;;;;;6153069;28;80597;-62
2022/07/03 05:20:28;;;;;;;7.30;4.18;;;26.60;59.30;;;;;;6158242;28;81816;-62
2022/07/03 05:23:28;;;;;;;9.40;6.00;;;26.60;59.40;;;;;;6154217;28;80555;-63
2022/07/03 05:26:29;;;;;;;8.73;4.93;;;26.60;59.60;;;;;;6155375;28;80297;-62
2022/07/03 05:29:29;;;;;;;7.55;4.97;;;26.60;59.70;;;;;;6143317;28;80301;-61
2022/07/03 05:32:29;;;;;;;5.22;4.10;;;26.70;59.80;;;;;;6147083;28;80357;-62
2022/07/03 05:35:30;;;;;;;5.90;3.72;;;26.60;59.40;;;;;;6142638;28;80317;-62
2022/07/03 05:41:50;;;;;;;6.05;4.30;;;26.60;59.60;;;;;;6146443;28;82642;-61
2022/07/03 05:44:50;;;;;;;5.75;4.60;;;26.70;60.10;;;;;;6156206;28;80300;-62
2022/07/03 05:47:50;;;;;;;6.03;3.78;;;26.70;60.00;;;;;;6156677;28;80563;-62
2022/07/03 05:50:51;;;;;;;8.52;4.78;;;26.70;60.20;;;;;;6152643;28;80391;-62
2022/07/03 05:53:51;;;;;;;5.90;4.40;;;26.70;60.40;;;;;;6157946;28;80638;-63
2022/07/03 05:56:52;;;;;;;10.45;5.22;;;26.70;60.00;;;;;;6148974;28;81259;-62
2022/07/03 05:59:52;;;;;;;8.38;5.15;;;26.70;59.40;;;;;;6156755;28;80721;-62
2022/07/03 06:02:53;;;;;;;8.43;4.72;;;26.70;59.30;;;;;;6158253;28;82984;-63
2022/07/03 06:05:53;;;;;;;8.15;4.88;;;26.70;58.80;;;;;;6158385;28;81762;-62
2022/07/03 06:08:54;;;;;;;6.10;4.47;;;26.70;58.80;;;;;;6158277;28;80353;-61
2022/07/03 06:11:54;;;;;;;5.35;4.22;;;26.70;58.90;;;;;;6156851;28;80312;-61
2022/07/03 06:14:55;;;;;;;8.48;5.25;;;26.70;58.80;;;;;;6157760;28;81535;-61
2022/07/03 06:17:55;;;;;;;7.82;4.70;;;26.70;58.90;;;;;;6157655;28;80912;-62
2022/07/03 06:20:56;;;;;;;5.45;4.50;;;26.60;58.90;;;;;;6155330;28;82791;-62
2022/07/03 06:23:56;;;;;;;5.13;4.35;;;26.60;59.10;;;;;;6157274;28;85783;-62
2022/07/03 06:26:57;;;;;;;6.07;4.68;;;26.60;59.20;;;;;;6157002;28;84841;-63
2022/07/03 06:29:57;;;;;;;5.78;4.30;;;26.50;59.10;;;;;;6148252;28;80528;-63
2022/07/03 06:32:58;;;;;;;8.43;4.80;;;26.60;59.90;;;;;;6154101;28;80663;-63
2022/07/03 06:35:58;;;;;;;10.02;4.57;;;26.70;59.90;;;;;;6156276;28;80551;-70
2022/07/03 06:38:59;;;;;;;4.43;3.90;;;26.60;59.60;;;;;;6157672;28;80322;-68
2022/07/03 06:41:59;;;;;;;16.58;4.88;;;26.70;59.60;;;;;;6146708;28;80566;-63
2022/07/03 06:45:00;;;;;;;9.90;5.68;;;26.70;59.60;;;;;;6144058;28;81517;-62
2022/07/03 06:48:00;;;;;;;6.38;4.93;;;26.70;59.10;;;;;;6157581;28;80894;-70
2022/07/03 06:51:01;;;;;;;7.63;4.78;;;26.60;59.40;;;;;;6151342;28;80753;-62
2022/07/03 06:54:01;;;;;;;8.55;4.63;;;26.60;59.50;;;;;;6161861;28;80567;-63
2022/07/03 06:57:02;;;;;;;14.80;5.72;;;26.50;59.30;;;;;;6161963;28;80331;-62
2022/07/03 07:00:02;;;;;;;5.85;4.68;;;26.50;59.60;;;;;;6161968;28;80592;-63
2022/07/03 07:03:02;;;;;;;6.85;4.90;;;26.50;59.80;;;;;;6159865;28;80695;-62
2022/07/03 07:06:03;;;;;;;6.32;4.25;;;26.60;59.70;;;;;;6160838;28;81170;-62
2022/07/03 07:09:03;;;;;;;7.97;4.07;;;26.60;60.10;;;;;;6161130;28;80476;-61
2022/07/03 07:12:04;;;;;;;6.50;4.70;;;26.60;60.60;;;;;;6160955;28;82600;-62
2022/07/03 07:15:04;;;;;;;7.22;4.63;;;26.70;60.70;;;;;;6160899;28;80287;-61
2022/07/03 07:18:05;;;;;;;6.15;4.65;;;26.70;59.80;;;;;;6156989;28;80879;-61
2022/07/03 07:21:05;;;;;;;8.05;5.13;;;26.70;59.40;;;;;;6153743;28;80991;-61
2022/07/03 07:24:06;;;;;;;7.28;4.68;;;26.70;59.80;;;;;;6158340;28;80348;-61
2022/07/03 07:27:06;;;;;;;6.60;3.97;;;26.70;60.00;;;;;;6160936;28;80186;-60
2022/07/03 07:30:07;;;;;;;7.40;4.43;;;26.70;59.70;;;;;;6165287;28;80708;-61
2022/07/03 07:33:07;;;;;;;7.95;4.60;;;26.80;59.80;;;;;;6155785;28;80416;-62
2022/07/03 07:36:08;;;;;;;5.43;3.78;;;26.80;59.10;;;;;;6160394;28;80594;-62
2022/07/03 07:39:09;;;;;;;5.78;4.05;;;26.80;58.90;;;;;;6159624;28;81559;-63
2022/07/03 07:42:10;;;;;;;6.72;3.97;;;26.70;58.40;;;;;;6160632;28;80357;-64
2022/07/03 07:45:10;;;;;;;14.18;4.82;;;26.70;58.40;;;;;;6155541;28;81312;-72
2022/07/03 07:48:11;;;;;;;8.57;4.28;;;26.70;58.40;;;;;;6161649;28;80599;-74
2022/07/03 07:51:11;;;;;;;5.28;4.03;;;26.60;58.60;;;;;;6162101;28;80723;-69
2022/07/03 07:54:12;;;;;;;5.72;3.75;;;26.70;58.50;;;;;;6161700;28;82119;-62
2022/07/03 07:57:12;;;;;;;4.68;3.78;;;26.70;58.40;;;;;;6146799;28;80421;-76
2022/07/03 08:00:13;;;;;;;5.60;4.15;;;26.70;59.00;;;;;;6160857;28;80799;-72
2022/07/03 08:06:32;;;;;;;12.35;4.10;;;26.70;58.30;;;;;;6149322;28;81091;-71
2022/07/03 08:09:33;;;;;;;4.78;3.88;;;26.70;58.00;;;;;;6157678;28;80545;-68
2022/07/03 08:12:33;;;;;;;6.22;4.22;;;26.70;58.70;;;;;;6148301;28;81033;-63
2022/07/03 08:15:34;;;;;;;7.00;4.35;;;26.70;58.20;;;;;;6156760;28;81521;-63
2022/07/03 08:18:34;;;;;;;3.92;3.53;;;26.70;58.30;;;;;;6160173;28;81990;-63
2022/07/03 08:21:35;;;;;;;7.70;4.18;;;26.70;58.00;;;;;;6153841;28;80789;-62
2022/07/03 08:24:37;;;;;;;5.38;4.25;;;26.70;57.60;;;;;;6152132;28;80634;-64
2022/07/03 08:27:38;;;;;;;5.85;3.45;;;26.70;58.40;;;;;;6162026;28;80497;-64
2022/07/03 08:30:38;;;;;;;4.47;3.90;;;26.80;58.30;;;;;;6157754;28;80749;-64
2022/07/03 08:33:39;;;;;;;6.72;4.45;;;26.80;57.90;;;;;;6156698;28;80686;-66
2022/07/03 08:36:39;;;;;;;6.43;4.45;;;26.80;57.70;;;;;;6152051;28;80178;-63
2022/07/03 08:39:39;;;;;;;6.55;4.45;;;26.70;57.60;;;;;;6155447;28;80727;-65
2022/07/03 08:42:40;;;;;;;4.55;4.05;;;26.70;57.70;;;;;;6153328;28;80446;-64
2022/07/03 08:45:40;;;;;;;10.38;5.00;;;26.80;57.90;;;;;;6151990;28;80470;-77
2022/07/03 08:48:41;;;;;;;6.35;4.80;;;26.50;57.90;;;;;;6150626;28;83433;-63
2022/07/03 08:51:42;;;;;;;7.15;4.88;;;26.30;58.80;;;;;;6145132;28;80476;-68
2022/07/03 08:54:42;;;;;;;4.95;4.10;;;26.40;58.70;;;;;;6158940;28;81108;-63
2022/07/03 08:57:43;;;;;;;6.50;4.35;;;26.60;58.50;;;;;;6159599;28;80567;-62
2022/07/03 09:00:43;;;;;;;5.47;4.28;;;26.70;57.80;;;;;;6160384;28;80798;-62
2022/07/03 09:03:43;;;;;;;6.45;4.28;;;26.80;57.60;;;;;;6160176;28;81406;-65
2022/07/03 09:06:44;;;;;;;6.18;3.95;;;26.80;57.30;;;;;;6156970;28;80811;-63
2022/07/03 09:09:44;;;;;;;6.03;3.90;;;26.80;57.20;;;;;;6159718;28;80379;-63
2022/07/03 09:12:45;;;;;;;6.10;4.72;;;26.80;57.30;;;;;;6159992;28;80376;-62
2022/07/03 09:15:46;;;;;;;6.40;4.05;;;26.80;56.80;;;;;;6159818;28;81872;-62
2022/07/03 09:18:46;;;;;;;6.55;4.60;;;26.80;56.90;;;;;;6158755;28;80622;-63
2022/07/03 09:21:48;;;;;;;4.82;3.85;;;26.80;56.80;;;;;;6159088;28;81065;-63
2022/07/03 09:24:49;;;;;;;6.07;4.22;;;26.90;57.00;;;;;;6162102;28;80678;-62
2022/07/03 09:27:50;;;;;;;8.60;4.68;;;26.80;56.70;;;;;;6159648;28;80545;-62
2022/07/03 09:30:51;;;;;;;5.15;4.43;;;26.90;57.70;;;;;;6159709;28;80373;-72
2022/07/03 09:33:51;;;;;;;19.55;6.45;;;26.90;57.40;;;;;;6153255;28;80512;-67
2022/07/03 09:36:52;;;;;;;20.70;6.15;;;26.90;57.90;;;;;;6148962;28;80784;-72
2022/07/03 09:39:52;;;;;;;15.60;6.97;;;27.00;58.60;;;;;;6158509;28;83517;-70
2022/07/03 09:42:53;;;;;;;19.50;6.60;;;27.00;59.60;;;;;;6160071;28;81130;-63
2022/07/03 09:45:53;;;;;;;14.35;6.03;;;27.10;59.00;;;;;;6154388;28;80528;-63
2022/07/03 09:48:54;;;;;;;11.55;5.65;;;27.00;59.00;;;;;;6157711;28;80773;-63
2022/07/03 09:51:54;;;;;;;7.35;5.13;;;27.00;57.60;;;;;;6159062;28;82792;-63
2022/07/03 09:54:55;;;;;;;6.97;4.93;;;27.00;56.80;;;;;;6158964;28;80342;-63
2022/07/03 09:57:55;;;;;;;16.48;6.43;;;27.00;57.00;;;;;;6154891;28;80492;-63
2022/07/03 10:00:56;;;;;;;10.93;5.28;;;27.00;56.90;;;;;;6159562;28;79983;-63
2022/07/03 10:03:56;;;;;;;15.60;8.18;;;27.10;56.90;;;;;;6159210;28;81055;-63
2022/07/03 10:06:57;;;;;;;20.42;7.78;;;27.10;58.60;;;;;;6158997;28;80585;-63
2022/07/03 10:09:57;;;;;;;28.17;11.55;;;27.10;58.30;;;;;;6159188;28;79983;-63
2022/07/03 10:12:58;;;;;;;26.08;10.73;;;27.20;58.50;;;;;;6155971;28;83028;-63
2022/07/03 10:15:58;;;;;;;22.00;8.70;;;27.20;58.40;;;;;;6156029;28;83239;-63
2022/07/03 10:18:59;;;;;;;16.08;8.48;;;27.20;57.90;;;;;;6158091;28;83260;-78
2022/07/03 10:21:59;;;;;;;18.15;9.60;;;27.30;57.70;;;;;;6156205;28;80429;-64
2022/07/03 10:25:00;;;;;;;34.63;9.60;;;27.20;58.10;;;;;;6167663;28;80461;-64
2022/07/03 10:28:00;;;;;;;35.28;22.98;;;27.30;58.10;;;;;;6159319;28;80726;-76
2022/07/03 10:31:01;;;;;;;24.75;16.88;;;27.40;59.40;;;;;;6155065;28;83202;-65
2022/07/03 10:34:01;;;;;;;20.40;14.80;;;27.50;58.30;;;;;;6148494;28;84117;-63
2022/07/03 10:37:02;;;;;;;16.63;13.82;;;27.50;58.20;;;;;;6159753;28;83013;-65
2022/07/03 10:44:45;;;;;;;17.20;11.77;;;27.50;58.10;;;;;;6159686;28;82986;-67
2022/07/03 10:46:42;;;;;;;10.43;7.00;;;27.60;58.40;;;;;;6158300;28;84132;-63
2022/07/03 10:49:43;;;;;;;12.38;7.82;;;27.60;58.20;;;;;;6162390;28;80717;-63
2022/07/03 10:52:43;;;;;;;10.23;7.43;;;27.60;58.00;;;;;;6163350;28;81545;-70
2022/07/03 10:55:44;;;;;;;8.80;7.15;;;27.60;57.60;;;;;;6163743;28;80311;-72
2022/07/03 10:58:44;;;;;;;12.60;6.47;;;27.70;57.50;;;;;;6155689;28;80625;-72
2022/07/03 11:01:45;;;;;;;7.38;5.55;;;27.70;56.90;;;;;;6151463;28;80255;-72
2022/07/03 11:04:45;;;;;;;15.48;6.13;;;27.70;56.80;;;;;;6163294;28;80960;-77
2022/07/03 11:07:46;;;;;;;6.95;5.93;;;27.70;57.20;;;;;;6158112;28;80568;-69
2022/07/03 11:11:54;;;;;;;12.30;5.28;;;27.80;57.00;;;;;;6158424;28;80476;-63
2022/07/03 11:14:07;;;;;;;7.15;5.35;;;27.80;57.00;;;;;;6157966;28;80865;-65
2022/07/03 11:17:07;;;;;;;6.90;5.10;;;27.80;56.40;;;;;;6150810;28;80448;-64
2022/07/03 11:20:26;;;;;;;11.05;5.53;;;27.90;57.00;;;;;;6157343;28;80663;-64
2022/07/03 11:23:27;;;;;;;7.47;5.53;;;27.90;56.20;;;;;;6148410;28;80592;-64
2022/07/03 11:26:27;;;;;;;8.43;5.60;;;27.80;55.40;;;;;;6160235;28;80863;-63
2022/07/03 11:29:28;;;;;;;16.05;5.45;;;27.80;56.80;;;;;;6152925;28;80564;-63
2022/07/03 11:32:28;;;;;;;5.88;4.70;;;27.80;56.20;;;;;;6158828;28;83275;-62
2022/07/03 11:35:29;;;;;;;10.10;5.80;;;27.80;56.40;;;;;;6151914;28;81387;-63
2022/07/03 11:38:29;;;;;;;6.20;5.55;;;27.90;56.30;;;;;;6159591;28;80732;-63
2022/07/03 11:41:30;;;;;;;10.07;5.22;;;27.90;56.20;;;;;;6158352;28;81449;-63
2022/07/03 11:44:30;;;;;;;6.05;5.00;;;27.90;56.10;;;;;;6161083;28;80986;-64
2022/07/03 11:47:31;;;;;;;6.03;5.43;;;27.80;54.40;;;;;;6153903;28;81459;-63
2022/07/03 11:50:31;;;;;;;11.82;5.40;;;27.80;55.30;;;;;;6154882;28;80870;-61
2022/07/03 11:53:32;;;;;;;6.53;5.53;;;27.80;54.80;;;;;;6155241;28;80691;-62
2022/07/03 11:56:32;;;;;;;6.50;5.72;;;27.80;54.50;;;;;;6156150;28;80887;-63
2022/07/03 11:59:33;;;;;;;9.05;5.63;;;27.90;54.80;;;;;;6158468;28;80941;-61
2022/07/03 12:02:33;;;;;;;7.45;5.95;;;28.00;55.20;;;;;;6152642;28;87792;-62
2022/07/03 12:05:34;;;;;;;7.25;5.80;;;28.00;54.30;;;;;;6154207;28;80543;-62
2022/07/03 12:08:34;;;;;;;7.57;5.25;;;27.90;53.70;;;;;;6158170;28;80938;-61
2022/07/03 12:11:35;;;;;;;10.15;6.03;;;28.00;54.30;;;;;;6156718;28;81535;-62
2022/07/03 12:14:35;;;;;;;6.53;5.60;;;27.90;53.60;;;;;;6155274;28;80837;-62
2022/07/03 12:17:36;;;;;;;6.67;5.63;;;27.90;53.50;;;;;;6119438;28;1160320;-61
2022/07/03 12:20:36;;;;;;;7.35;5.40;;;27.80;54.20;;;;;;6157214;28;82661;-62
2022/07/03 12:23:37;;;;;;;6.90;5.18;;;27.90;54.20;;;;;;6160328;28;80306;-62
2022/07/03 12:26:37;;;;;;;5.90;4.80;;;28.00;54.40;;;;;;6160066;28;81001;-61
2022/07/03 12:29:38;;;;;;;6.78;5.28;;;28.00;54.30;;;;;;6158836;28;80749;-62
2022/07/03 12:32:38;;;;;;;6.65;5.40;;;27.90;53.90;;;;;;6150705;28;80416;-62
2022/07/03 12:35:39;;;;;;;5.97;4.93;;;28.00;54.10;;;;;;6155326;28;86733;-63
2022/07/03 12:38:40;;;;;;;7.18;5.55;;;28.00;54.50;;;;;;6154137;28;80623;-62
2022/07/03 12:41:41;;;;;;;7.00;5.55;;;28.00;54.40;;;;;;6160034;28;81523;-62
2022/07/03 12:44:41;;;;;;;7.95;5.82;;;28.00;53.30;;;;;;6154569;28;81010;-62
2022/07/03 12:47:42;;;;;;;6.85;5.13;;;28.00;54.00;;;;;;6155205;28;80520;-62
2022/07/03 12:50:42;;;;;;;6.93;5.63;;;27.90;53.20;;;;;;6159248;28;81639;-62
2022/07/03 12:53:43;;;;;;;8.18;5.90;;;27.90;53.40;;;;;;6157807;28;83177;-62
2022/07/03 12:56:43;;;;;;;8.57;4.65;;;27.90;53.60;;;;;;6153270;28;80592;-62
2022/07/03 12:59:44;;;;;;;8.18;5.43;;;28.00;53.40;;;;;;6145408;28;80933;-62
2022/07/03 13:02:44;;;;;;;6.20;5.60;;;27.90;53.90;;;;;;6159524;28;80357;-63
2022/07/03 13:05:45;;;;;;;7.53;6.07;;;28.00;54.10;;;;;;6155386;28;80509;-63
2022/07/03 13:08:45;;;;;;;7.38;5.72;;;28.00;54.30;;;;;;6156641;28;81179;-63
2022/07/03 13:11:46;;;;;;;8.50;5.30;;;28.10;54.70;;;;;;6155214;28;80456;-63
2022/07/03 13:14:46;;;;;;;7.63;5.88;;;28.00;53.40;;;;;;6146912;28;82811;-63
2022/07/03 13:17:47;;;;;;;8.80;5.85;;;28.00;52.90;;;;;;6146257;28;81059;-64
2022/07/03 13:20:47;;;;;;;8.82;5.85;;;27.90;53.00;;;;;;6153129;28;80829;-63
2022/07/03 13:23:48;;;;;;;8.25;6.22;;;28.00;53.70;;;;;;6146317;28;80502;-63
2022/07/03 13:26:48;;;;;;;6.97;5.78;;;27.90;53.10;;;;;;6150209;28;81045;-64
2022/07/03 13:29:48;;;;;;;8.10;5.53;;;27.90;53.10;;;;;;6144947;28;81196;-64
2022/07/03 13:32:49;;;;;;;7.40;5.75;;;27.90;53.20;;;;;;6147093;28;81753;-63
2022/07/03 13:35:50;;;;;;;8.18;6.38;;;27.90;52.70;;;;;;6152326;28;81447;-62
2022/07/03 13:38:50;;;;;;;7.82;6.32;;;27.90;52.70;;;;;;6153780;28;80849;-63
2022/07/03 13:41:51;;;;;;;8.88;6.63;;;27.80;52.50;;;;;;6150106;28;82151;-62
2022/07/03 13:44:51;;;;;;;9.98;6.38;;;27.80;53.30;;;;;;6155388;28;80268;-62
2022/07/03 13:47:52;;;;;;;9.18;5.82;;;27.90;53.30;;;;;;6154373;28;80966;-64
2022/07/03 13:50:52;;;;;;;19.60;6.03;;;27.90;53.20;;;;;;6153426;28;80228;-62
2022/07/03 13:53:53;;;;;;;8.93;6.38;;;27.90;53.50;;;;;;6155793;28;81587;-62
2022/07/03 13:56:53;;;;;;;8.05;6.18;;;27.90;54.30;;;;;;6156809;28;80583;-62
2022/07/03 13:59:54;;;;;;;10.45;6.03;;;27.90;54.40;;;;;;6157462;28;80491;-62
2022/07/03 14:02:54;;;;;;;9.60;5.90;;;28.00;54.90;;;;;;6155411;28;80852;-63
2022/07/03 14:05:55;;;;;;;8.27;6.22;;;28.00;53.90;;;;;;6156679;28;82022;-62
2022/07/03 14:08:56;;;;;;;10.25;6.43;;;28.00;54.00;;;;;;6158804;28;80552;-72
2022/07/03 14:11:56;;;;;;;11.00;6.55;;;28.00;54.00;;;;;;6158504;28;81047;-64
2022/07/03 14:14:57;;;;;;;7.05;5.93;;;28.00;54.00;;;;;;6158993;28;80574;-63
2022/07/03 14:17:59;;;;;;;7.78;6.15;;;27.90;52.70;;;;;;6156314;28;83152;-62
2022/07/03 14:21:00;;;;;;;11.15;6.03;;;27.90;53.40;;;;;;6151690;28;86252;-66
2022/07/03 14:24:00;;;;;;;10.23;6.50;;;27.90;53.20;;;;;;6158196;28;81380;-80
2022/07/03 14:33:39;;;;;;;12.07;6.88;;;27.90;53.10;;;;;;6159062;28;80341;-75
2022/07/03 14:36:39;;;;;;;20.25;7.57;;;27.90;53.30;;;;;;6157595;28;81407;-71
2022/07/03 14:39:40;;;;;;;12.65;8.18;;;28.00;53.90;;;;;;6158842;28;80406;-69
2022/07/03 14:42:44;;;;;;;14.77;8.10;;;27.90;54.80;;;;;;6142368;28;80737;-63
2022/07/03 14:45:44;;;;;;;14.30;7.47;;;28.00;54.90;;;;;;6147690;28;80368;-63
2022/07/03 14:48:45;;;;;;;8.70;7.07;;;27.90;54.00;;;;;;6158276;28;80646;-65
2022/07/03 14:51:45;;;;;;;9.40;6.57;;;27.90;53.20;;;;;;6155836;28;80496;-63
2022/07/03 14:54:45;;;;;;;8.65;5.82;;;27.90;53.40;;;;;;6156070;28;81692;-63
2022/07/03 14:57:47;;;;;;;11.32;6.47;;;27.90;53.00;;;;;;6154247;28;83340;-64
2022/07/03 15:00:47;;;;;;;7.72;5.47;;;27.90;53.30;;;;;;6152813;28;80707;-64
2022/07/03 15:03:48;;;;;;;8.60;6.72;;;27.90;53.30;;;;;;6153355;28;82070;-64
2022/07/03 15:06:48;;;;;;;7.43;5.70;;;28.00;53.50;;;;;;6157345;28;80606;-64
2022/07/03 15:09:49;;;;;;;7.40;5.88;;;28.00;54.60;;;;;;6153583;28;80541;-64
2022/07/03 15:12:49;;;;;;;8.75;5.50;;;27.90;53.20;;;;;;6157677;28;80301;-64
2022/07/03 15:15:50;;;;;;;6.90;5.32;;;27.90;53.20;;;;;;6156185;28;80450;-62
2022/07/03 15:18:50;;;;;;;7.15;5.68;;;27.90;53.20;;;;;;6161971;28;80700;-63
2022/07/03 15:21:51;;;;;;;7.18;5.53;;;27.90;53.80;;;;;;6156925;28;82274;-63
2022/07/03 15:24:51;;;;;;;9.25;4.82;;;27.90;53.60;;;;;;6161950;28;81195;-74
2022/07/03 15:27:55;;;;;;;8.15;5.72;;;27.90;53.30;;;;;;6151858;28;80457;-63
2022/07/03 15:30:55;;;;;;;7.55;5.40;;;27.90;53.10;;;;;;6161630;28;81365;-64
2022/07/03 15:33:56;;;;;;;8.50;6.05;;;27.90;53.30;;;;;;6161765;28;80486;-63
2022/07/03 15:36:56;;;;;;;6.80;5.40;;;27.90;53.40;;;;;;6151824;28;81524;-64
2022/07/03 15:39:57;;;;;;;6.80;5.40;;;27.90;52.70;;;;;;6160389;28;82250;-71
2022/07/03 15:42:57;;;;;;;6.03;5.32;;;27.90;52.50;;;;;;6162461;28;80604;-64
2022/07/03 15:45:58;;;;;;;11.50;6.25;;;27.90;52.70;;;;;;6152246;28;81374;-69
2022/07/03 15:48:58;;;;;;;6.97;5.95;;;27.90;54.00;;;;;;6158179;28;80419;-64
2022/07/03 15:52:02;;;;;;;6.95;5.68;;;27.90;54.20;;;;;;6159955;28;80605;-65
2022/07/03 15:55:02;;;;;;;9.20;5.70;;;27.90;53.70;;;;;;6158738;28;80491;-66